Terminal Aerodrome Forecast
Issued by NWS Wilmington, OH

Current Version | Previous Version | Graphics & Text | Print | Product List | Glossary On
Versions: 1 2 3 4 5 6 7 8 9 10 11 12 13 14 15 16
000
FTUS41 KILN 211600 AAA
TAFILN
TAF AMD
KILN 211618Z 2116/2212 36008KT P6SM OVC028
      TEMPO 2116/2118 BKN015
     FM211800 36008KT P6SM BKN035
     FM220100 32012KT P6SM SCT040
     FM220600 28005KT P6SM FEW040=

USA.gov is the U.S. government's official web portal to all federal, state and local government web resources and services.